OAL970 LGAV-LGIO
Flight info
| Callsign | OAL970 |
|---|---|
| Flight time | 0h 41m |
| Altitude | 24000 |
| Route | KOR L53 GARTA V60 IBTIN |
| Aircraft | A320/M-VGDW/C |
Departure
| Time | 2026-04-11 10:29 |
|---|---|
| Airport | Athens Eleftherios Venizelos International Airport (LGAV) |
Arrival
| Time | 2026-04-11 11:10 |
|---|---|
| Airport | Ioannina King Pyrrhus National Airport (LGIO) |
| Time | Latitude | Longitude | Altitude | Speed | Heading |
|---|---|---|---|---|---|
| 2026-04-11 09:56 | 37.93836 | 23.95061 | 301 ft | 0 kts | 308° |
| 2026-04-11 10:16 | 37.93825 | 23.95079 | 302 ft | 3 kts | 308° |
| 2026-04-11 10:16 | 37.93812 | 23.95100 | 303 ft | 3 kts | 308° |
| 2026-04-11 10:16 | 37.93799 | 23.95121 | 301 ft | 3 kts | 304° |
| 2026-04-11 10:17 | 37.93795 | 23.95143 | 301 ft | 3 kts | 233° |
| 2026-04-11 10:17 | 37.93802 | 23.95154 | 299 ft | 0 kts | 223° |
| 2026-04-11 10:21 | 37.93799 | 23.95150 | 301 ft | 2 kts | 220° |
| 2026-04-11 10:21 | 37.93785 | 23.95136 | 301 ft | 4 kts | 219° |
| 2026-04-11 10:22 | 37.93754 | 23.95109 | 302 ft | 7 kts | 205° |
| 2026-04-11 10:22 | 37.93702 | 23.95137 | 300 ft | 11 kts | 132° |
| 2026-04-11 10:22 | 37.93641 | 23.95228 | 298 ft | 16 kts | 147° |
| 2026-04-11 10:22 | 37.93535 | 23.95172 | 299 ft | 19 kts | 218° |
| 2026-04-11 10:23 | 37.93430 | 23.95072 | 300 ft | 20 kts | 217° |
| 2026-04-11 10:23 | 37.93307 | 23.94956 | 300 ft | 21 kts | 216° |
| 2026-04-11 10:23 | 37.93204 | 23.94857 | 301 ft | 14 kts | 217° |
| 2026-04-11 10:23 | 37.93126 | 23.94784 | 302 ft | 14 kts | 217° |
| 2026-04-11 10:24 | 37.93053 | 23.94714 | 301 ft | 14 kts | 217° |
| 2026-04-11 10:24 | 37.92963 | 23.94630 | 301 ft | 18 kts | 216° |
| 2026-04-11 10:24 | 37.92851 | 23.94523 | 302 ft | 22 kts | 217° |
| 2026-04-11 10:24 | 37.92724 | 23.94403 | 303 ft | 23 kts | 216° |
| 2026-04-11 10:25 | 37.92607 | 23.94293 | 305 ft | 18 kts | 214° |
| 2026-04-11 10:25 | 37.92570 | 23.94292 | 304 ft | 0 kts | 153° |
| 2026-04-11 10:26 | 37.92561 | 23.94297 | 306 ft | 7 kts | 153° |
| 2026-04-11 10:26 | 37.92515 | 23.94360 | 307 ft | 15 kts | 126° |
| 2026-04-11 10:27 | 37.92495 | 23.94462 | 308 ft | 15 kts | 41° |
| 2026-04-11 10:27 | 37.92522 | 23.94488 | 309 ft | 1 kts | 36° |
| 2026-04-11 10:27 | 37.92524 | 23.94490 | 308 ft | 1 kts | 36° |
| 2026-04-11 10:27 | 37.92532 | 23.94497 | 308 ft | 0 kts | 36° |
| 2026-04-11 10:28 | 37.92533 | 23.94498 | 307 ft | 0 kts | 36° |
| 2026-04-11 10:28 | 37.92538 | 23.94503 | 307 ft | 5 kts | 36° |
| 2026-04-11 10:28 | 37.92732 | 23.94688 | 302 ft | 72 kts | 38° |
| 2026-04-11 10:29 | 37.93315 | 23.95243 | 291 ft | 135 kts | 37° |
| 2026-04-11 10:29 | 37.94180 | 23.96083 | 462 ft | 167 kts | 38° |
| 2026-04-11 10:29 | 37.95158 | 23.96969 | 1046 ft | 178 kts | 36° |
| 2026-04-11 10:29 | 37.96147 | 23.97894 | 1853 ft | 176 kts | 37° |
| 2026-04-11 10:30 | 37.97149 | 23.98864 | 2396 ft | 191 kts | 37° |
| 2026-04-11 10:30 | 37.98265 | 23.99948 | 2731 ft | 214 kts | 37° |
| 2026-04-11 10:30 | 37.99503 | 24.01146 | 3139 ft | 235 kts | 36° |
| 2026-04-11 10:30 | 38.00848 | 24.02444 | 3785 ft | 248 kts | 36° |
| 2026-04-11 10:31 | 38.02228 | 24.03781 | 4662 ft | 252 kts | 36° |
| 2026-04-11 10:31 | 38.03633 | 24.05141 | 5527 ft | 256 kts | 35° |
| 2026-04-11 10:31 | 38.05065 | 24.06506 | 6344 ft | 263 kts | 31° |
| 2026-04-11 10:31 | 38.06779 | 24.07376 | 6926 ft | 269 kts | 4° |
| 2026-04-11 10:32 | 38.08624 | 24.07192 | 7733 ft | 267 kts | 338° |
| 2026-04-11 10:32 | 38.10189 | 24.05998 | 8634 ft | 263 kts | 313° |
| 2026-04-11 10:32 | 38.11167 | 24.04061 | 9572 ft | 263 kts | 290° |
| 2026-04-11 10:32 | 38.11402 | 24.01780 | 10423 ft | 270 kts | 272° |
| 2026-04-11 10:33 | 38.11335 | 23.99294 | 10725 ft | 294 kts | 271° |
| 2026-04-11 10:33 | 38.11243 | 23.96562 | 10970 ft | 316 kts | 271° |
| 2026-04-11 10:33 | 38.11136 | 23.93728 | 11546 ft | 325 kts | 271° |
| 2026-04-11 10:33 | 38.11025 | 23.90881 | 12270 ft | 329 kts | 271° |
| 2026-04-11 10:34 | 38.10912 | 23.87960 | 13016 ft | 333 kts | 271° |
| 2026-04-11 10:34 | 38.10799 | 23.84974 | 13787 ft | 336 kts | 271° |
| 2026-04-11 10:34 | 38.10689 | 23.81986 | 14472 ft | 340 kts | 271° |
| 2026-04-11 10:34 | 38.10583 | 23.79026 | 15122 ft | 342 kts | 271° |
| 2026-04-11 10:35 | 38.10475 | 23.75960 | 15792 ft | 344 kts | 271° |
| 2026-04-11 10:35 | 38.10369 | 23.72952 | 16452 ft | 347 kts | 272° |
| 2026-04-11 10:35 | 38.10259 | 23.69887 | 17111 ft | 349 kts | 272° |
| 2026-04-11 10:35 | 38.10149 | 23.66789 | 17764 ft | 352 kts | 272° |
| 2026-04-11 10:36 | 38.10037 | 23.63674 | 18395 ft | 355 kts | 272° |
| 2026-04-11 10:36 | 38.09922 | 23.60542 | 18968 ft | 357 kts | 272° |
| 2026-04-11 10:36 | 38.09802 | 23.57379 | 19537 ft | 360 kts | 272° |
| 2026-04-11 10:36 | 38.09679 | 23.54195 | 20100 ft | 362 kts | 272° |
| 2026-04-11 10:37 | 38.09553 | 23.50983 | 20667 ft | 365 kts | 272° |
| 2026-04-11 10:37 | 38.09424 | 23.47762 | 21223 ft | 367 kts | 272° |
| 2026-04-11 10:37 | 38.09294 | 23.44512 | 21766 ft | 370 kts | 272° |
| 2026-04-11 10:37 | 38.09165 | 23.41247 | 22300 ft | 372 kts | 272° |
| 2026-04-11 10:38 | 38.09035 | 23.37945 | 22818 ft | 375 kts | 272° |
| 2026-04-11 10:38 | 38.08903 | 23.34629 | 23357 ft | 378 kts | 273° |
| 2026-04-11 10:38 | 38.08634 | 23.27911 | 24052 ft | 383 kts | 273° |
| 2026-04-11 10:39 | 38.08499 | 23.24523 | 24105 ft | 387 kts | 273° |
| 2026-04-11 10:39 | 38.08362 | 23.21106 | 24112 ft | 389 kts | 273° |
| 2026-04-11 10:39 | 38.08222 | 23.17666 | 24115 ft | 390 kts | 273° |
| 2026-04-11 10:39 | 38.08079 | 23.14233 | 24110 ft | 390 kts | 273° |
| 2026-04-11 10:40 | 38.07935 | 23.10840 | 24115 ft | 390 kts | 273° |
| 2026-04-11 10:40 | 38.07785 | 23.07356 | 24112 ft | 390 kts | 273° |
| 2026-04-11 10:40 | 38.07640 | 23.03919 | 24109 ft | 390 kts | 273° |
| 2026-04-11 10:40 | 38.07495 | 23.00487 | 24108 ft | 390 kts | 273° |
| 2026-04-11 10:41 | 38.07348 | 22.97055 | 24110 ft | 390 kts | 273° |
| 2026-04-11 10:41 | 38.07244 | 22.93622 | 24103 ft | 386 kts | 278° |
| 2026-04-11 10:41 | 38.07708 | 22.90364 | 24103 ft | 376 kts | 293° |
| 2026-04-11 10:41 | 38.08862 | 22.87430 | 24101 ft | 371 kts | 304° |
| 2026-04-11 10:42 | 38.10218 | 22.84646 | 24103 ft | 371 kts | 304° |
| 2026-04-11 10:42 | 38.11572 | 22.81858 | 24100 ft | 371 kts | 304° |
| 2026-04-11 10:42 | 38.12925 | 22.79067 | 24099 ft | 371 kts | 304° |
| 2026-04-11 10:42 | 38.14276 | 22.76273 | 24099 ft | 371 kts | 304° |
| 2026-04-11 10:43 | 38.16973 | 22.70677 | 24098 ft | 371 kts | 304° |
| 2026-04-11 10:43 | 38.18320 | 22.67881 | 24097 ft | 371 kts | 304° |
| 2026-04-11 10:43 | 38.19664 | 22.65086 | 24095 ft | 371 kts | 304° |
| 2026-04-11 10:44 | 38.21013 | 22.62278 | 24096 ft | 371 kts | 304° |
| 2026-04-11 10:44 | 38.22357 | 22.59480 | 24092 ft | 371 kts | 304° |
| 2026-04-11 10:44 | 38.23704 | 22.56674 | 24091 ft | 371 kts | 304° |
| 2026-04-11 10:44 | 38.25051 | 22.53867 | 24095 ft | 371 kts | 303° |
| 2026-04-11 10:45 | 38.26395 | 22.51062 | 24089 ft | 371 kts | 303° |
| 2026-04-11 10:45 | 38.27739 | 22.48251 | 24091 ft | 371 kts | 303° |
| 2026-04-11 10:45 | 38.29079 | 22.45444 | 24090 ft | 371 kts | 303° |
| 2026-04-11 10:45 | 38.30420 | 22.42636 | 24097 ft | 371 kts | 303° |
| 2026-04-11 10:46 | 38.31763 | 22.39828 | 24101 ft | 371 kts | 303° |
| 2026-04-11 10:46 | 38.33103 | 22.37024 | 24092 ft | 371 kts | 303° |
| 2026-04-11 10:46 | 38.34441 | 22.34213 | 24089 ft | 371 kts | 303° |
| 2026-04-11 10:46 | 38.35780 | 22.31395 | 24099 ft | 372 kts | 303° |
| 2026-04-11 10:47 | 38.37120 | 22.28580 | 24097 ft | 372 kts | 303° |
| 2026-04-11 10:47 | 38.38459 | 22.25767 | 24097 ft | 371 kts | 303° |
| 2026-04-11 10:47 | 38.39797 | 22.22954 | 24084 ft | 372 kts | 303° |
| 2026-04-11 10:47 | 38.41136 | 22.20138 | 24085 ft | 371 kts | 303° |
| 2026-04-11 10:48 | 38.42472 | 22.17322 | 24081 ft | 371 kts | 303° |
| 2026-04-11 10:48 | 38.43807 | 22.14498 | 24089 ft | 371 kts | 303° |
| 2026-04-11 10:48 | 38.45137 | 22.11680 | 24081 ft | 371 kts | 303° |
| 2026-04-11 10:48 | 38.46466 | 22.08864 | 24088 ft | 371 kts | 303° |
| 2026-04-11 10:49 | 38.47800 | 22.06042 | 24084 ft | 371 kts | 303° |
| 2026-04-11 10:49 | 38.49134 | 22.03217 | 24074 ft | 372 kts | 303° |
| 2026-04-11 10:49 | 38.50470 | 22.00384 | 24083 ft | 372 kts | 303° |
| 2026-04-11 10:49 | 38.51803 | 21.97555 | 24086 ft | 371 kts | 303° |
| 2026-04-11 10:50 | 38.53117 | 21.94764 | 24077 ft | 372 kts | 303° |
| 2026-04-11 10:50 | 38.54447 | 21.91934 | 24079 ft | 372 kts | 303° |
| 2026-04-11 10:50 | 38.55782 | 21.89094 | 24085 ft | 373 kts | 303° |
| 2026-04-11 10:50 | 38.57116 | 21.86257 | 24081 ft | 373 kts | 303° |
| 2026-04-11 10:51 | 38.58450 | 21.83416 | 24074 ft | 373 kts | 303° |
| 2026-04-11 10:51 | 38.59783 | 21.80575 | 24081 ft | 372 kts | 303° |
| 2026-04-11 10:51 | 38.61113 | 21.77738 | 24083 ft | 372 kts | 303° |
| 2026-04-11 10:51 | 38.62443 | 21.74898 | 24079 ft | 373 kts | 303° |
| 2026-04-11 10:52 | 38.63772 | 21.72056 | 24082 ft | 373 kts | 303° |
| 2026-04-11 10:52 | 38.65100 | 21.69208 | 24083 ft | 372 kts | 303° |
| 2026-04-11 10:52 | 38.66424 | 21.66365 | 24082 ft | 371 kts | 303° |
| 2026-04-11 10:52 | 38.67748 | 21.63528 | 24085 ft | 371 kts | 303° |
| 2026-04-11 10:53 | 38.69073 | 21.60689 | 24082 ft | 372 kts | 303° |
| 2026-04-11 10:53 | 38.70399 | 21.57849 | 24051 ft | 372 kts | 303° |
| 2026-04-11 10:53 | 38.71715 | 21.55018 | 23820 ft | 368 kts | 303° |
| 2026-04-11 10:53 | 38.73017 | 21.52204 | 23580 ft | 366 kts | 303° |
| 2026-04-11 10:54 | 38.74315 | 21.49401 | 23298 ft | 365 kts | 303° |
| 2026-04-11 10:54 | 38.75609 | 21.46614 | 23021 ft | 364 kts | 303° |
| 2026-04-11 10:54 | 38.76901 | 21.43829 | 22748 ft | 363 kts | 303° |
| 2026-04-11 10:54 | 38.78187 | 21.41051 | 22476 ft | 362 kts | 303° |
| 2026-04-11 10:55 | 38.79037 | 21.39216 | 22295 ft | 361 kts | 303° |
| 2026-04-11 10:55 | 38.80312 | 21.36457 | 22030 ft | 359 kts | 303° |
| 2026-04-11 10:55 | 38.81583 | 21.33704 | 21767 ft | 358 kts | 303° |
| 2026-04-11 10:55 | 38.82836 | 21.30986 | 21409 ft | 351 kts | 303° |
| 2026-04-11 10:56 | 38.84071 | 21.28306 | 20967 ft | 346 kts | 303° |
| 2026-04-11 10:56 | 38.85290 | 21.25665 | 20544 ft | 342 kts | 303° |
| 2026-04-11 10:56 | 38.86491 | 21.23057 | 20127 ft | 337 kts | 303° |
| 2026-04-11 10:56 | 38.87676 | 21.20476 | 19721 ft | 333 kts | 303° |
| 2026-04-11 10:57 | 38.88846 | 21.17927 | 19316 ft | 329 kts | 303° |
| 2026-04-11 10:57 | 38.89998 | 21.15415 | 18915 ft | 325 kts | 303° |
| 2026-04-11 10:57 | 38.91139 | 21.12922 | 18513 ft | 322 kts | 303° |
| 2026-04-11 10:57 | 38.92266 | 21.10462 | 18069 ft | 318 kts | 303° |
| 2026-04-11 10:58 | 38.93382 | 21.08022 | 17657 ft | 315 kts | 303° |
| 2026-04-11 10:58 | 38.94491 | 21.05599 | 17245 ft | 313 kts | 303° |
| 2026-04-11 10:58 | 38.95593 | 21.03194 | 16835 ft | 312 kts | 303° |
| 2026-04-11 10:58 | 38.96717 | 21.00823 | 16410 ft | 309 kts | 307° |
| 2026-04-11 10:59 | 38.98144 | 20.98782 | 15993 ft | 306 kts | 319° |
| 2026-04-11 10:59 | 38.99884 | 20.97224 | 15526 ft | 306 kts | 330° |
| 2026-04-11 10:59 | 39.01870 | 20.96207 | 15038 ft | 308 kts | 342° |
| 2026-04-11 10:59 | 39.03987 | 20.95713 | 14554 ft | 310 kts | 348° |
| 2026-04-11 11:00 | 39.06123 | 20.95285 | 14063 ft | 311 kts | 347° |
| 2026-04-11 11:00 | 39.08263 | 20.94849 | 13524 ft | 311 kts | 347° |
| 2026-04-11 11:00 | 39.10397 | 20.94412 | 13016 ft | 310 kts | 348° |
| 2026-04-11 11:00 | 39.12497 | 20.93985 | 12515 ft | 309 kts | 348° |
| 2026-04-11 11:01 | 39.14612 | 20.93555 | 12015 ft | 307 kts | 348° |
| 2026-04-11 11:01 | 39.16720 | 20.93125 | 11512 ft | 306 kts | 347° |
| 2026-04-11 11:01 | 39.18817 | 20.92694 | 11009 ft | 305 kts | 347° |
| 2026-04-11 11:01 | 39.20887 | 20.92266 | 10714 ft | 291 kts | 347° |
| 2026-04-11 11:02 | 39.22813 | 20.91875 | 10449 ft | 272 kts | 347° |
| 2026-04-11 11:02 | 39.24657 | 20.91499 | 10092 ft | 267 kts | 347° |
| 2026-04-11 11:02 | 39.26484 | 20.91123 | 9939 ft | 265 kts | 347° |
| 2026-04-11 11:02 | 39.28302 | 20.90747 | 9797 ft | 265 kts | 347° |
| 2026-04-11 11:03 | 39.30123 | 20.90371 | 9663 ft | 265 kts | 347° |
| 2026-04-11 11:03 | 39.31939 | 20.89997 | 9534 ft | 264 kts | 348° |
| 2026-04-11 11:03 | 39.33758 | 20.89618 | 9324 ft | 266 kts | 347° |
| 2026-04-11 11:03 | 39.35603 | 20.89223 | 8772 ft | 268 kts | 348° |
| 2026-04-11 11:04 | 39.37447 | 20.88828 | 8148 ft | 272 kts | 348° |
| 2026-04-11 11:04 | 39.39298 | 20.88435 | 7871 ft | 266 kts | 348° |
| 2026-04-11 11:04 | 39.41064 | 20.88066 | 7740 ft | 249 kts | 348° |
| 2026-04-11 11:04 | 39.42738 | 20.87822 | 7631 ft | 237 kts | 358° |
| 2026-04-11 11:05 | 39.44328 | 20.88170 | 7496 ft | 231 kts | 15° |
| 2026-04-11 11:05 | 39.45786 | 20.89087 | 7123 ft | 234 kts | 25° |
| 2026-04-11 11:05 | 39.47209 | 20.90112 | 6791 ft | 234 kts | 25° |
| 2026-04-11 11:05 | 39.48632 | 20.91133 | 6465 ft | 234 kts | 25° |
| 2026-04-11 11:06 | 39.50134 | 20.91870 | 6132 ft | 230 kts | 8° |
| 2026-04-11 11:06 | 39.51715 | 20.92230 | 5781 ft | 232 kts | 7° |
| 2026-04-11 11:06 | 39.53298 | 20.92592 | 5412 ft | 229 kts | 7° |
| 2026-04-11 11:06 | 39.54889 | 20.92836 | 5107 ft | 231 kts | 356° |
| 2026-04-11 11:07 | 39.56430 | 20.92819 | 5093 ft | 210 kts | 356° |
| 2026-04-11 11:07 | 39.57873 | 20.92809 | 4623 ft | 208 kts | 356° |
| 2026-04-11 11:07 | 39.59279 | 20.92548 | 4237 ft | 199 kts | 337° |
| 2026-04-11 11:07 | 39.60444 | 20.91708 | 3837 ft | 194 kts | 322° |
| 2026-04-11 11:08 | 39.61479 | 20.90660 | 3713 ft | 180 kts | 318° |
| 2026-04-11 11:08 | 39.62395 | 20.89632 | 3462 ft | 172 kts | 318° |
| 2026-04-11 11:08 | 39.63327 | 20.88699 | 3191 ft | 168 kts | 323° |
| 2026-04-11 11:08 | 39.64272 | 20.87817 | 2927 ft | 165 kts | 324° |
| 2026-04-11 11:09 | 39.65163 | 20.86940 | 2633 ft | 157 kts | 321° |
| 2026-04-11 11:09 | 39.65969 | 20.86052 | 2408 ft | 150 kts | 321° |
| 2026-04-11 11:09 | 39.66789 | 20.85234 | 2198 ft | 146 kts | 323° |
| 2026-04-11 11:09 | 39.67585 | 20.84423 | 1956 ft | 145 kts | 319° |
| 2026-04-11 11:10 | 39.68352 | 20.83594 | 1766 ft | 141 kts | 322° |
| 2026-04-11 11:10 | 39.69118 | 20.82820 | 1574 ft | 137 kts | 318° |
| 2026-04-11 11:10 | 39.69622 | 20.82287 | 1556 ft | 24 kts | 321° |